Time;durP1;ratioP1;P1;durP2;ratioP2;P2;SDS_P1;SDS_P2;PMS_P1;PMS_P2;Temp;Humidity;BMP_temperature;BMP_pressure;BME280_temperature;BME280_humidity;BME280_pressure;Samples;Min_cycle;Max_cycle;Signal;HPM_P1;HPM_P2
2022/12/10 00:00:15;;;;;;;11.95;10.65;;;13.40;51.90;;;;;;5052792;28;20182;-68
2022/12/10 00:02:41;;;;;;;11.98;10.55;;;13.30;51.80;;;;;;5053034;28;20182;-68
2022/12/10 00:05:07;;;;;;;12.65;11.05;;;13.30;51.80;;;;;;5053645;28;20200;-69
2022/12/10 00:07:32;;;;;;;12.20;11.00;;;13.30;51.80;;;;;;5052207;28;20205;-69
2022/12/10 00:09:58;;;;;;;11.75;10.55;;;13.30;51.90;;;;;;5053468;28;20236;-69
2022/12/10 00:12:23;;;;;;;13.32;10.52;;;13.30;51.90;;;;;;5052466;28;20642;-68
2022/12/10 00:14:49;;;;;;;11.70;10.50;;;13.30;51.90;;;;;;5052976;28;20728;-68
2022/12/10 00:17:14;;;;;;;12.75;10.05;;;13.30;51.90;;;;;;5053241;28;20197;-68
2022/12/10 00:19:40;;;;;;;12.65;11.35;;;13.40;51.90;;;;;;5052323;28;20177;-68
2022/12/10 00:22:05;;;;;;;12.68;11.05;;;13.40;51.90;;;;;;5053207;28;20195;-68
2022/12/10 00:24:31;;;;;;;12.20;10.80;;;13.40;51.80;;;;;;5052645;28;20213;-69
2022/12/10 00:26:56;;;;;;;13.13;10.95;;;13.40;51.70;;;;;;5052303;28;20204;-70
2022/12/10 00:29:22;;;;;;;11.88;10.63;;;13.50;51.70;;;;;;5053257;28;20171;-69
2022/12/10 00:31:48;;;;;;;12.23;10.32;;;13.40;51.70;;;;;;5052674;28;20183;-68
2022/12/10 00:34:13;;;;;;;12.35;10.82;;;13.40;51.70;;;;;;5052495;28;20203;-68
2022/12/10 00:36:42;;;;;;;12.35;11.05;;;13.40;51.80;;;;;;5052438;28;20189;-69
2022/12/10 00:39:07;;;;;;;12.32;10.60;;;13.30;51.80;;;;;;5053007;28;20167;-69
2022/12/10 00:41:33;;;;;;;12.20;10.80;;;13.30;51.80;;;;;;5051773;28;20534;-69
2022/12/10 00:43:58;;;;;;;11.65;10.45;;;13.20;51.90;;;;;;5052895;28;20174;-69
2022/12/10 00:46:24;;;;;;;12.18;10.55;;;13.30;51.90;;;;;;5052667;28;20178;-69
2022/12/10 00:48:49;;;;;;;12.60;11.30;;;13.30;51.90;;;;;;5051650;28;20198;-69
2022/12/10 00:51:24;;;;;;;12.88;10.65;;;13.30;51.90;;;;;;5052780;28;20171;-70
2022/12/10 00:53:51;;;;;;;11.82;10.55;;;13.40;51.90;;;;;;5052498;28;20262;-69
2022/12/10 00:56:20;;;;;;;11.90;10.60;;;13.40;51.80;;;;;;5051999;28;20175;-69
2022/12/10 00:58:47;;;;;;;11.45;10.18;;;13.40;51.70;;;;;;5052495;28;20175;-68
2022/12/10 01:01:16;;;;;;;12.10;10.57;;;13.50;51.70;;;;;;5052870;28;20233;-69
2022/12/10 01:03:42;;;;;;;10.75;9.65;;;13.50;51.70;;;;;;5050549;28;20171;-68
2022/12/10 01:06:28;;;;;;;13.25;10.35;;;13.40;51.70;;;;;;5052762;28;20179;-69
2022/12/10 01:08:55;;;;;;;12.65;11.35;;;13.40;51.70;;;;;;5051601;28;20207;-68
2022/12/10 01:11:22;;;;;;;12.68;11.00;;;13.30;51.70;;;;;;5052390;28;20570;-69
2022/12/10 01:13:48;;;;;;;12.10;10.77;;;13.30;51.70;;;;;;5050946;28;20661;-68
2022/12/10 01:16:14;;;;;;;12.75;11.55;;;13.30;52.40;;;;;;5051989;28;20215;-68
2022/12/10 01:18:40;;;;;;;13.57;11.15;;;13.20;51.80;;;;;;5052340;28;20185;-68
2022/12/10 01:21:12;;;;;;;13.48;11.00;;;13.20;52.50;;;;;;5052789;28;20661;-68
2022/12/10 01:23:38;;;;;;;11.50;10.38;;;13.30;51.90;;;;;;5051648;28;20198;-69
2022/12/10 01:26:06;;;;;;;11.52;10.13;;;13.30;51.80;;;;;;5052268;28;20179;-69
2022/12/10 01:28:32;;;;;;;12.13;10.93;;;13.40;51.80;;;;;;5052288;28;20547;-71
2022/12/10 01:31:02;;;;;;;12.80;11.43;;;13.40;51.80;;;;;;5052048;28;20545;-69
2022/12/10 01:33:28;;;;;;;11.65;10.15;;;13.40;51.70;;;;;;5052622;28;20233;-69
2022/12/10 01:35:53;;;;;;;12.20;10.85;;;13.40;51.70;;;;;;5054301;28;20623;-68
2022/12/10 01:38:19;;;;;;;11.30;10.00;;;13.40;51.70;;;;;;5055553;28;20179;-68
2022/12/10 01:40:44;;;;;;;12.02;10.68;;;13.40;51.70;;;;;;5055721;28;20175;-69
2022/12/10 01:43:14;;;;;;;12.88;11.02;;;13.30;51.70;;;;;;5056263;28;20197;-69
2022/12/10 01:45:39;;;;;;;11.75;10.55;;;13.30;51.60;;;;;;5055247;28;20191;-69
2022/12/10 01:48:08;;;;;;;12.82;11.23;;;13.20;51.70;;;;;;5056042;28;20274;-69
2022/12/10 01:50:33;;;;;;;11.00;9.88;;;13.20;51.70;;;;;;5054666;28;20217;-70
2022/12/10 01:52:59;;;;;;;11.38;10.23;;;13.20;51.80;;;;;;5055260;28;20203;-69
2022/12/10 01:55:39;;;;;;;12.25;10.93;;;13.20;51.80;;;;;;5054878;28;20333;-69
2022/12/10 01:58:04;;;;;;;13.05;11.07;;;13.30;51.80;;;;;;5055444;28;20182;-68
2022/12/10 02:00:31;;;;;;;11.77;10.20;;;13.30;51.70;;;;;;5054792;28;20179;-68
2022/12/10 02:03:00;;;;;;;11.75;10.55;;;13.30;51.60;;;;;;5055062;28;20532;-68
2022/12/10 02:05:39;;;;;;;11.45;10.25;;;13.40;51.60;;;;;;5054030;28;20182;-69
2022/12/10 02:08:28;;;;;;;11.93;10.50;;;13.40;51.50;;;;;;5055230;28;20182;-69
2022/12/10 02:11:07;;;;;;;11.02;9.90;;;13.40;51.50;;;;;;5054101;28;20233;-69
2022/12/10 02:13:35;;;;;;;11.85;10.45;;;13.30;51.50;;;;;;5053450;28;20177;-68
2022/12/10 02:16:37;;;;;;;12.02;10.45;;;13.30;51.40;;;;;;5055434;28;20207;-68
2022/12/10 02:19:18;;;;;;;12.02;10.68;;;13.20;51.40;;;;;;4996973;28;20179;-68
2022/12/10 02:21:44;;;;;;;12.45;10.32;;;13.20;51.50;;;;;;5048333;28;20182;-68
2022/12/10 02:24:12;;;;;;;12.85;10.82;;;13.10;51.50;;;;;;5054197;28;20536;-69
2022/12/10 02:26:50;;;;;;;11.82;10.55;;;13.20;51.60;;;;;;5053365;28;20179;-70
2022/12/10 02:29:17;;;;;;;10.77;9.57;;;13.20;51.60;;;;;;5054205;28;20178;-69
2022/12/10 02:31:46;;;;;;;12.27;10.70;;;13.20;51.50;;;;;;5055104;28;20236;-69
2022/12/10 02:34:11;;;;;;;12.38;10.30;;;13.30;51.40;;;;;;5053477;28;20634;-69
2022/12/10 02:36:38;;;;;;;11.55;10.40;;;13.30;51.40;;;;;;5053733;28;20255;-68
2022/12/10 02:39:05;;;;;;;11.25;9.98;;;13.40;51.30;;;;;;5054073;28;20265;-68
2022/12/10 02:41:35;;;;;;;11.75;9.93;;;13.40;51.20;;;;;;5053059;28;20182;-69
2022/12/10 02:44:06;;;;;;;10.93;9.82;;;13.40;51.20;;;;;;5053770;28;20615;-69
2022/12/10 02:46:31;;;;;;;13.20;11.15;;;13.60;51.40;;;;;;5052627;28;20248;-70
2022/12/10 02:48:57;;;;;;;11.55;10.35;;;13.30;51.20;;;;;;5054277;28;20514;-68
2022/12/10 02:51:22;;;;;;;12.13;10.82;;;13.20;51.20;;;;;;5053671;28;20270;-69
2022/12/10 02:53:57;;;;;;;14.07;11.90;;;13.20;51.20;;;;;;5054794;28;20254;-69
2022/12/10 02:56:45;;;;;;;11.48;10.25;;;13.10;51.30;;;;;;5054255;28;20667;-69
2022/12/10 02:59:25;;;;;;;13.32;11.18;;;13.20;51.30;;;;;;5056511;28;20175;-69
2022/12/10 03:02:02;;;;;;;12.80;11.10;;;13.20;51.30;;;;;;5052450;28;20262;-68
2022/12/10 03:04:53;;;;;;;12.60;10.20;;;13.30;51.30;;;;;;5053455;28;20650;-69
2022/12/10 03:07:25;;;;;;;11.73;10.43;;;13.30;51.20;;;;;;5053463;28;20190;-69
2022/12/10 03:10:00;;;;;;;11.45;10.25;;;13.30;51.20;;;;;;5052691;28;20183;-69
2022/12/10 03:12:29;;;;;;;13.25;10.85;;;13.40;51.20;;;;;;5054494;28;20309;-68
2022/12/10 03:14:58;;;;;;;11.57;10.38;;;13.40;51.10;;;;;;5054381;28;20219;-68
2022/12/10 03:17:23;;;;;;;12.23;10.50;;;13.40;50.90;;;;;;5053873;28;20171;-68
2022/12/10 03:19:49;;;;;;;12.02;9.98;;;13.50;50.90;;;;;;5052851;28;20179;-68
2022/12/10 03:22:15;;;;;;;12.80;10.43;;;13.50;50.90;;;;;;5053798;28;20258;-68
2022/12/10 03:24:41;;;;;;;11.35;10.20;;;13.40;50.90;;;;;;5052696;28;20270;-69
2022/12/10 03:27:06;;;;;;;11.73;10.52;;;13.40;50.90;;;;;;5053156;28;20258;-69
2022/12/10 03:29:37;;;;;;;11.82;10.20;;;13.30;51.00;;;;;;5052106;28;20595;-70
2022/12/10 03:32:06;;;;;;;12.45;10.45;;;13.30;50.90;;;;;;5053516;28;20175;-68
2022/12/10 03:34:32;;;;;;;12.15;10.07;;;13.20;50.90;;;;;;5053798;28;20203;-69
2022/12/10 03:36:58;;;;;;;11.45;10.25;;;13.20;51.10;;;;;;5053403;28;20228;-68
2022/12/10 03:39:23;;;;;;;11.50;10.30;;;13.30;51.00;;;;;;5052830;28;20175;-68
2022/12/10 03:41:49;;;;;;;12.88;10.35;;;13.30;51.00;;;;;;5052707;28;20266;-68
2022/12/10 03:44:30;;;;;;;11.57;9.55;;;13.30;51.00;;;;;;5053304;28;20254;-69
2022/12/10 03:46:56;;;;;;;10.75;9.65;;;13.30;50.90;;;;;;5052973;28;20642;-69
2022/12/10 03:49:21;;;;;;;12.77;11.43;;;13.40;50.90;;;;;;5053752;28;20182;-70
2022/12/10 03:51:47;;;;;;;10.88;9.77;;;13.40;50.90;;;;;;5052496;28;20175;-69
2022/12/10 03:54:12;;;;;;;10.27;9.18;;;13.50;50.80;;;;;;5053767;28;20249;-69
2022/12/10 03:56:41;;;;;;;11.15;9.85;;;13.50;50.70;;;;;;5053704;28;20171;-68
2022/12/10 03:59:06;;;;;;;12.70;10.20;;;13.40;50.70;;;;;;5052999;28;20178;-68
2022/12/10 04:01:32;;;;;;;10.93;9.73;;;13.40;50.70;;;;;;5053415;28;20170;-68
2022/12/10 04:03:57;;;;;;;12.40;10.13;;;13.30;50.80;;;;;;5053460;28;20175;-69
2022/12/10 04:06:23;;;;;;;11.90;10.32;;;13.30;50.70;;;;;;5052740;28;20171;-68
2022/12/10 04:08:49;;;;;;;12.07;10.48;;;13.30;50.80;;;;;;5053414;28;20185;-68
2022/12/10 04:11:15;;;;;;;10.93;9.82;;;13.20;50.80;;;;;;5053295;28;20230;-68
2022/12/10 04:16:35;;;;;;;10.95;9.77;;;13.20;50.80;;;;;;5050990;28;20333;-68
2022/12/10 04:19:05;;;;;;;12.48;10.23;;;13.30;50.80;;;;;;5052751;28;20168;-68
2022/12/10 04:27:10;;;;;;;10.60;9.50;;;13.40;50.70;;;;;;5052368;28;20190;-69
2022/12/10 04:29:35;;;;;;;10.00;8.93;;;13.40;50.60;;;;;;5051775;28;20253;-70
2022/12/10 04:32:01;;;;;;;11.48;10.27;;;13.40;50.60;;;;;;5053130;28;20258;-68
2022/12/10 04:34:26;;;;;;;11.30;9.85;;;13.40;50.60;;;;;;5052168;28;20241;-68
2022/12/10 04:36:52;;;;;;;10.50;9.40;;;13.30;50.70;;;;;;5052774;28;20232;-68
2022/12/10 04:39:17;;;;;;;11.40;10.20;;;13.30;50.70;;;;;;5052893;28;20195;-69
2022/12/10 04:41:44;;;;;;;11.70;10.50;;;13.30;50.70;;;;;;5052092;28;20175;-68
2022/12/10 04:44:10;;;;;;;11.57;10.35;;;13.20;50.70;;;;;;5053080;28;20183;-69
2022/12/10 04:46:35;;;;;;;12.20;10.38;;;13.20;50.80;;;;;;5051691;28;20257;-70
2022/12/10 04:49:01;;;;;;;12.25;10.10;;;13.20;50.80;;;;;;5052785;28;20183;-69
2022/12/10 04:51:26;;;;;;;11.73;10.48;;;13.30;50.80;;;;;;5052860;28;20171;-69
2022/12/10 04:53:52;;;;;;;11.93;10.07;;;13.30;50.80;;;;;;5051567;28;20179;-69
2022/12/10 04:56:18;;;;;;;10.93;9.80;;;13.30;50.80;;;;;;5052491;28;20309;-69
2022/12/10 04:58:43;;;;;;;10.60;9.43;;;13.30;50.70;;;;;;5052516;28;20167;-69
2022/12/10 05:01:09;;;;;;;11.73;9.95;;;13.40;50.70;;;;;;5052312;28;20171;-69
2022/12/10 05:03:35;;;;;;;11.32;9.90;;;13.40;50.60;;;;;;5052421;28;20167;-69
2022/12/10 05:06:05;;;;;;;11.73;10.13;;;13.40;50.70;;;;;;5052760;28;20182;-68
2022/12/10 05:08:31;;;;;;;11.93;10.52;;;13.40;50.70;;;;;;5051533;28;20178;-70
2022/12/10 05:11:01;;;;;;;12.50;10.27;;;13.30;50.70;;;;;;5054643;28;20223;-68
2022/12/10 05:13:27;;;;;;;13.73;11.38;;;13.30;50.80;;;;;;5056870;28;20263;-69
2022/12/10 05:15:55;;;;;;;12.68;11.23;;;13.20;51.50;;;;;;5055576;28;20309;-68
2022/12/10 05:18:21;;;;;;;12.13;10.77;;;13.20;50.80;;;;;;5056434;28;20175;-69
2022/12/10 05:20:46;;;;;;;12.90;11.50;;;13.20;50.80;;;;;;5056236;28;20185;-68
2022/12/10 05:23:30;;;;;;;14.10;11.45;;;13.20;50.80;;;;;;5055800;28;20244;-69
2022/12/10 05:25:59;;;;;;;13.13;11.63;;;13.20;50.80;;;;;;5056635;28;20183;-69
2022/12/10 05:28:25;;;;;;;14.27;12.02;;;13.30;50.90;;;;;;5056456;28;20171;-69
2022/12/10 05:30:50;;;;;;;11.40;9.95;;;13.30;50.80;;;;;;5055528;28;20182;-69
2022/12/10 05:33:16;;;;;;;14.25;10.95;;;13.40;50.90;;;;;;5056382;28;20171;-69
2022/12/10 05:35:42;;;;;;;13.75;11.90;;;13.40;50.80;;;;;;5056170;28;20221;-68
2022/12/10 05:38:07;;;;;;;15.20;12.48;;;13.40;50.70;;;;;;5055696;28;20167;-69
2022/12/10 05:40:39;;;;;;;14.50;11.80;;;13.40;50.80;;;;;;5055921;28;20171;-69
2022/12/10 05:43:04;;;;;;;14.90;12.10;;;13.40;50.80;;;;;;5055567;28;20179;-68
2022/12/10 05:45:32;;;;;;;16.23;13.27;;;13.30;50.80;;;;;;5056254;28;20171;-70
2022/12/10 05:47:58;;;;;;;17.10;13.60;;;13.20;50.80;;;;;;5056106;28;20652;-69
2022/12/10 05:50:23;;;;;;;16.02;13.00;;;13.20;50.80;;;;;;5055273;28;20250;-70
2022/12/10 05:52:50;;;;;;;14.45;12.45;;;13.20;50.80;;;;;;5055506;28;20691;-69
2022/12/10 05:55:16;;;;;;;16.00;13.38;;;13.20;50.90;;;;;;5055983;28;20238;-70
2022/12/10 05:57:41;;;;;;;16.85;13.60;;;13.20;51.00;;;;;;5054920;28;20230;-69
2022/12/10 06:00:07;;;;;;;17.30;13.95;;;13.30;51.00;;;;;;5055795;28;20684;-69
2022/12/10 06:02:33;;;;;;;15.32;13.15;;;13.30;50.90;;;;;;5055428;28;20197;-69
2022/12/10 06:04:59;;;;;;;17.40;13.68;;;13.30;50.80;;;;;;5054842;28;20262;-69
2022/12/10 06:07:24;;;;;;;17.77;14.00;;;13.30;50.80;;;;;;5055759;28;20206;-69
2022/12/10 06:09:50;;;;;;;17.42;14.45;;;13.40;50.90;;;;;;5055481;28;20789;-69
2022/12/10 06:12:15;;;;;;;18.45;14.00;;;13.40;50.70;;;;;;5054682;28;20697;-68
2022/12/10 06:14:41;;;;;;;17.45;14.88;;;13.40;50.80;;;;;;5055065;28;20214;-69
2022/12/10 06:17:06;;;;;;;16.25;14.10;;;13.30;50.80;;;;;;5055607;28;20205;-68
2022/12/10 06:19:32;;;;;;;19.10;15.48;;;13.30;50.80;;;;;;5054319;28;20175;-69
2022/12/10 06:21:58;;;;;;;18.80;15.35;;;13.20;51.10;;;;;;5055251;28;20321;-69
2022/12/10 06:24:24;;;;;;;20.10;15.60;;;13.20;50.80;;;;;;5055596;28;20167;-69
2022/12/10 06:26:49;;;;;;;18.58;14.55;;;13.20;50.80;;;;;;5054521;28;20744;-69
2022/12/10 06:29:15;;;;;;;18.30;14.65;;;13.20;51.00;;;;;;5055296;28;20178;-70
2022/12/10 06:31:40;;;;;;;20.80;15.68;;;13.20;51.00;;;;;;5054943;28;20172;-69
2022/12/10 06:34:06;;;;;;;19.73;15.00;;;13.20;51.00;;;;;;5054331;28;20177;-68
2022/12/10 06:36:32;;;;;;;17.40;14.27;;;13.30;51.00;;;;;;5054761;28;20179;-69
2022/12/10 06:38:57;;;;;;;18.63;15.02;;;13.30;50.90;;;;;;5055177;28;20167;-69
2022/12/10 06:41:23;;;;;;;20.02;14.65;;;13.30;50.90;;;;;;5054421;28;20507;-69
2022/12/10 06:43:48;;;;;;;18.17;15.23;;;13.40;50.90;;;;;;5054759;28;20171;-69
2022/12/10 06:46:15;;;;;;;19.45;15.65;;;13.40;50.90;;;;;;5054432;28;20228;-69
2022/12/10 06:48:41;;;;;;;19.02;15.35;;;13.30;50.80;;;;;;5054331;28;20171;-69
2022/12/10 06:51:07;;;;;;;18.23;14.95;;;13.40;50.90;;;;;;5054992;28;20182;-69
2022/12/10 06:53:32;;;;;;;18.92;16.02;;;13.30;50.80;;;;;;5054101;28;20168;-69
2022/12/10 06:56:01;;;;;;;19.70;16.05;;;13.20;50.80;;;;;;5054700;28;20712;-69
2022/12/10 06:58:30;;;;;;;23.45;18.08;;;13.20;50.80;;;;;;5054607;28;20641;-69
2022/12/10 07:01:06;;;;;;;19.98;16.65;;;13.20;50.80;;;;;;5053951;28;20190;-68
2022/12/10 07:03:35;;;;;;;20.85;15.95;;;13.20;51.00;;;;;;5054144;28;20248;-69
2022/12/10 07:06:00;;;;;;;21.33;17.15;;;13.20;51.00;;;;;;5054683;28;20179;-69
2022/12/10 07:08:26;;;;;;;21.55;16.08;;;13.20;50.90;;;;;;5054030;28;20187;-69
2022/12/10 07:10:52;;;;;;;20.92;16.95;;;13.30;50.90;;;;;;5054119;28;20746;-69
2022/12/10 07:13:17;;;;;;;20.95;16.38;;;13.30;50.90;;;;;;5054750;28;20183;-68
2022/12/10 07:15:43;;;;;;;21.58;17.05;;;13.40;50.90;;;;;;5053357;28;20203;-68
2022/12/10 07:18:08;;;;;;;21.38;16.42;;;13.40;50.90;;;;;;5054343;28;20190;-68
2022/12/10 07:20:34;;;;;;;18.73;15.75;;;13.40;50.80;;;;;;5054193;28;20171;-68
2022/12/10 07:22:59;;;;;;;19.67;16.05;;;13.30;50.80;;;;;;5053514;28;20179;-69
2022/12/10 07:25:25;;;;;;;21.77;16.58;;;13.30;51.50;;;;;;5054141;28;20202;-70
2022/12/10 07:27:50;;;;;;;20.23;16.20;;;13.20;50.80;;;;;;5053744;28;20230;-69
2022/12/10 07:30:16;;;;;;;20.00;17.42;;;13.20;50.80;;;;;;5053325;28;20228;-70
2022/12/10 07:32:41;;;;;;;22.33;17.48;;;13.20;50.80;;;;;;5052986;28;20179;-68
2022/12/10 07:35:07;;;;;;;20.65;16.85;;;13.10;50.90;;;;;;5054156;28;20306;-70
2022/12/10 07:37:33;;;;;;;21.85;16.88;;;13.20;50.90;;;;;;5052997;28;20258;-69
2022/12/10 07:39:58;;;;;;;21.90;17.33;;;13.20;50.90;;;;;;5053907;28;20179;-69
2022/12/10 07:42:24;;;;;;;21.10;17.20;;;13.20;50.90;;;;;;5053139;28;20175;-69
2022/12/10 07:44:49;;;;;;;21.02;16.40;;;13.30;50.90;;;;;;5053511;28;21018;-69
2022/12/10 07:47:15;;;;;;;20.15;17.08;;;13.30;50.80;;;;;;5053591;28;20567;-69
2022/12/10 07:49:43;;;;;;;20.20;15.95;;;13.40;50.90;;;;;;5052787;28;21013;-70
2022/12/10 07:52:08;;;;;;;19.38;15.43;;;13.40;50.80;;;;;;5053674;28;20179;-70
2022/12/10 07:54:34;;;;;;;20.02;15.73;;;13.40;50.60;;;;;;5053133;28;20206;-69
2022/12/10 07:57:00;;;;;;;18.27;15.70;;;13.40;50.70;;;;;;5052862;28;20167;-69
2022/12/10 07:59:25;;;;;;;19.90;15.77;;;13.40;50.70;;;;;;5053548;28;20171;-69
2022/12/10 08:01:51;;;;;;;20.50;16.08;;;13.30;50.70;;;;;;5053377;28;20655;-69
2022/12/10 08:04:17;;;;;;;20.90;17.15;;;13.30;50.70;;;;;;5052791;28;20183;-70
2022/12/10 08:06:42;;;;;;;23.67;17.17;;;13.20;50.70;;;;;;5053310;28;20171;-69
2022/12/10 08:09:09;;;;;;;19.17;15.68;;;13.20;50.70;;;;;;5053424;28;20182;-70
2022/12/10 08:11:34;;;;;;;20.17;15.50;;;13.20;50.80;;;;;;5052249;28;20227;-70
2022/12/10 08:14:00;;;;;;;19.20;16.30;;;13.20;50.80;;;;;;5053145;28;20665;-68
2022/12/10 08:16:27;;;;;;;21.52;16.17;;;13.20;50.80;;;;;;5053196;28;20183;-69
2022/12/10 08:18:54;;;;;;;19.13;15.35;;;13.30;50.80;;;;;;5052044;28;20190;-68
2022/12/10 08:21:21;;;;;;;20.63;16.92;;;13.30;50.80;;;;;;5052054;28;20262;-69
2022/12/10 08:23:46;;;;;;;19.55;15.57;;;13.30;50.80;;;;;;5052843;28;20254;-69
2022/12/10 08:26:14;;;;;;;19.85;15.80;;;13.40;50.70;;;;;;5052380;28;20250;-70
2022/12/10 08:28:39;;;;;;;20.02;15.43;;;13.40;50.70;;;;;;5052723;28;20175;-70
2022/12/10 08:31:06;;;;;;;21.42;16.83;;;13.40;50.70;;;;;;5053076;28;20225;-70
2022/12/10 08:33:36;;;;;;;18.45;15.68;;;13.40;50.60;;;;;;5051870;28;20191;-69
2022/12/10 08:36:02;;;;;;;20.45;16.30;;;13.40;50.60;;;;;;5052729;28;20635;-69
2022/12/10 08:38:27;;;;;;;21.50;16.90;;;13.30;50.50;;;;;;5052857;28;20700;-69
2022/12/10 08:40:53;;;;;;;20.15;16.48;;;13.30;50.70;;;;;;5051772;28;20221;-69
2022/12/10 08:43:18;;;;;;;23.13;16.67;;;13.30;50.70;;;;;;5052595;28;20258;-69
2022/12/10 08:45:44;;;;;;;20.58;16.80;;;13.20;50.80;;;;;;5050760;28;20210;-70
2022/12/10 08:48:09;;;;;;;18.40;15.57;;;13.20;50.80;;;;;;5052839;28;20262;-70
2022/12/10 08:50:36;;;;;;;21.42;16.98;;;13.30;50.80;;;;;;5052683;28;20277;-70
2022/12/10 08:53:02;;;;;;;18.70;15.57;;;13.30;50.80;;;;;;5052204;28;20186;-69
2022/12/10 08:55:27;;;;;;;19.17;15.45;;;13.40;51.50;;;;;;5052702;28;20206;-69
2022/12/10 08:57:53;;;;;;;20.38;16.50;;;13.40;50.70;;;;;;5052384;28;20221;-69
2022/12/10 09:00:18;;;;;;;21.05;15.85;;;13.40;50.70;;;;;;5052000;28;20207;-70
2022/12/10 09:02:44;;;;;;;22.08;16.75;;;13.50;50.70;;;;;;5052403;28;20205;-69
2022/12/10 09:05:10;;;;;;;18.52;15.05;;;13.40;50.70;;;;;;5052594;28;20179;-69
2022/12/10 09:07:35;;;;;;;17.83;15.30;;;13.40;50.70;;;;;;5051433;28;20177;-70
2022/12/10 09:10:01;;;;;;;20.35;16.55;;;13.40;50.70;;;;;;5052523;28;20175;-70
2022/12/10 09:12:27;;;;;;;21.30;16.58;;;13.30;50.70;;;;;;5052224;28;20314;-69
2022/12/10 09:14:52;;;;;;;23.35;17.58;;;13.20;50.80;;;;;;5051244;28;20218;-69
2022/12/10 09:17:18;;;;;;;19.88;16.10;;;13.20;50.70;;;;;;5052753;28;20205;-68
2022/12/10 09:20:01;;;;;;;19.27;15.73;;;13.20;50.90;;;;;;5052301;28;20568;-69
2022/12/10 09:22:27;;;;;;;18.05;15.27;;;13.20;50.90;;;;;;5051866;28;20171;-69
2022/12/10 09:24:52;;;;;;;19.45;15.50;;;13.30;50.90;;;;;;5050864;28;20182;-70
2022/12/10 09:27:18;;;;;;;18.88;15.35;;;13.30;50.90;;;;;;5052285;28;20179;-70
2022/12/10 09:29:43;;;;;;;19.38;15.05;;;13.40;50.90;;;;;;5051261;28;20181;-69
2022/12/10 09:32:09;;;;;;;19.33;14.70;;;13.40;50.90;;;;;;5052364;28;20182;-69
2022/12/10 09:34:34;;;;;;;16.10;13.60;;;13.40;50.80;;;;;;5051827;28;20660;-70
2022/12/10 09:37:00;;;;;;;19.45;15.43;;;13.40;50.70;;;;;;5051350;28;20179;-70
2022/12/10 09:39:25;;;;;;;18.25;14.65;;;13.40;50.80;;;;;;5052356;28;20266;-70
2022/12/10 09:41:54;;;;;;;18.60;15.00;;;13.40;50.80;;;;;;5051747;28;20310;-70
2022/12/10 09:44:45;;;;;;;20.23;15.88;;;13.30;50.80;;;;;;5052049;28;20178;-70
2022/12/10 09:47:11;;;;;;;18.83;14.90;;;13.30;50.80;;;;;;5052307;28;20179;-70
2022/12/10 09:49:42;;;;;;;20.83;16.38;;;13.20;50.80;;;;;;5050221;28;20543;-70
2022/12/10 09:52:13;;;;;;;20.00;15.65;;;13.20;51.00;;;;;;5052084;28;20171;-70
2022/12/10 09:54:44;;;;;;;17.42;14.27;;;13.20;51.00;;;;;;5050733;28;20280;-69
2022/12/10 09:57:16;;;;;;;17.42;14.20;;;13.30;51.00;;;;;;5053493;28;20254;-69
2022/12/10 09:59:43;;;;;;;19.58;15.45;;;13.30;51.00;;;;;;5055108;28;20577;-69
2022/12/10 10:02:25;;;;;;;20.83;15.63;;;13.30;51.00;;;;;;5054548;28;20183;-69
2022/12/10 10:04:52;;;;;;;17.08;14.32;;;13.40;50.90;;;;;;5053559;28;20646;-69
2022/12/10 10:07:26;;;;;;;17.92;14.27;;;13.40;50.90;;;;;;5056005;28;20175;-70
2022/12/10 10:09:56;;;;;;;18.83;15.40;;;13.30;50.90;;;;;;5055495;28;20205;-68
2022/12/10 10:12:22;;;;;;;18.35;14.77;;;13.30;50.80;;;;;;5053689;28;20708;-69
2022/12/10 10:14:48;;;;;;;18.05;15.30;;;13.30;50.80;;;;;;5054321;28;20199;-69
2022/12/10 10:17:21;;;;;;;20.10;15.77;;;13.20;50.80;;;;;;5054995;28;20199;-69
2022/12/10 10:19:46;;;;;;;17.58;13.73;;;13.20;50.90;;;;;;5054235;28;20600;-69
2022/12/10 10:22:12;;;;;;;20.92;15.35;;;13.20;51.00;;;;;;5055569;28;20167;-69
2022/12/10 10:24:42;;;;;;;16.67;13.88;;;13.20;51.00;;;;;;5054601;28;20175;-70
2022/12/10 10:27:16;;;;;;;17.60;13.65;;;13.20;51.10;;;;;;5055589;28;20179;-70
2022/12/10 10:29:44;;;;;;;17.25;14.27;;;13.20;51.10;;;;;;5055545;28;20269;-70
2022/12/10 10:32:14;;;;;;;17.63;13.88;;;13.30;51.10;;;;;;5053752;28;20258;-69
2022/12/10 10:34:40;;;;;;;19.25;14.55;;;13.30;51.00;;;;;;5055204;28;20202;-69
2022/12/10 10:37:05;;;;;;;19.08;14.05;;;13.30;51.00;;;;;;5055647;28;20194;-68
2022/12/10 10:39:31;;;;;;;17.52;14.18;;;13.40;51.00;;;;;;5052992;28;20175;-69
2022/12/10 10:41:58;;;;;;;20.13;15.63;;;13.30;50.90;;;;;;5055171;28;20538;-68
2022/12/10 10:44:26;;;;;;;17.80;14.32;;;13.30;51.00;;;;;;5053767;28;20641;-70
2022/12/10 10:46:52;;;;;;;18.85;14.25;;;13.20;50.90;;;;;;5052856;28;20618;-69
2022/12/10 10:49:21;;;;;;;17.38;14.18;;;13.20;51.00;;;;;;5054977;28;20625;-70
2022/12/10 10:51:46;;;;;;;18.58;15.18;;;13.10;50.90;;;;;;5054736;28;20546;-69
2022/12/10 10:54:12;;;;;;;19.48;15.57;;;13.10;51.00;;;;;;5054198;28;20171;-69
2022/12/10 10:56:42;;;;;;;17.67;13.55;;;13.20;51.10;;;;;;5053435;28;20186;-69
2022/12/10 10:59:16;;;;;;;18.77;14.30;;;13.20;51.30;;;;;;5053889;28;20190;-68
2022/12/10 11:01:52;;;;;;;16.90;13.45;;;13.20;51.20;;;;;;5054337;28;20175;-68
2022/12/10 11:04:28;;;;;;;17.85;14.65;;;13.30;51.10;;;;;;5053708;28;20183;-70
2022/12/10 11:06:55;;;;;;;18.58;15.55;;;13.30;51.10;;;;;;5052429;28;20233;-69
2022/12/10 11:09:24;;;;;;;17.85;14.43;;;13.30;51.00;;;;;;5052861;28;20187;-69
2022/12/10 11:11:51;;;;;;;17.85;13.85;;;13.30;51.00;;;;;;5052839;28;20681;-69
2022/12/10 11:14:31;;;;;;;20.77;16.02;;;13.30;51.10;;;;;;5053960;28;20245;-68
2022/12/10 11:17:04;;;;;;;18.80;15.50;;;13.30;51.00;;;;;;5054609;28;20198;-68
2022/12/10 11:19:29;;;;;;;19.70;15.57;;;13.20;51.00;;;;;;5053239;28;20168;-69
2022/12/10 11:21:55;;;;;;;20.13;15.40;;;13.20;51.00;;;;;;5053457;28;20653;-69
2022/12/10 11:24:20;;;;;;;20.40;15.93;;;13.10;51.00;;;;;;5053117;28;20713;-69
2022/12/10 11:27:05;;;;;;;19.75;14.90;;;13.20;51.10;;;;;;5054092;28;20265;-70
2022/12/10 11:29:57;;;;;;;20.35;15.23;;;13.20;51.20;;;;;;5054257;28;20202;-69
2022/12/10 11:32:56;;;;;;;21.35;16.00;;;13.30;51.30;;;;;;5046597;28;20187;-68
2022/12/10 11:35:54;;;;;;;18.60;14.65;;;13.30;51.20;;;;;;5052244;28;20288;-69
2022/12/10 11:38:47;;;;;;;19.23;15.18;;;13.30;51.10;;;;;;5052671;28;20210;-68
2022/12/10 11:41:33;;;;;;;20.02;15.38;;;13.40;51.10;;;;;;5052806;28;20186;-69
2022/12/10 11:44:16;;;;;;;19.90;14.70;;;13.40;51.20;;;;;;5053160;28;20250;-69
2022/12/10 11:46:57;;;;;;;22.38;17.00;;;13.30;51.10;;;;;;5053668;28;20198;-70
2022/12/10 11:49:32;;;;;;;24.10;17.15;;;13.30;51.10;;;;;;5053147;28;20178;-70
2022/12/10 11:52:04;;;;;;;23.65;17.08;;;13.30;51.10;;;;;;5053981;28;20170;-69
2022/12/10 11:54:57;;;;;;;19.13;15.45;;;13.20;51.10;;;;;;5053916;28;20203;-69
2022/12/10 11:57:34;;;;;;;21.63;16.42;;;13.20;51.30;;;;;;5052992;28;20610;-69
2022/12/10 12:00:14;;;;;;;19.00;16.17;;;13.20;51.30;;;;;;5053613;28;20181;-69
2022/12/10 12:02:57;;;;;;;20.65;15.32;;;13.20;51.40;;;;;;5051538;28;20171;-69
2022/12/10 12:05:28;;;;;;;19.52;15.25;;;13.30;51.30;;;;;;5052387;28;20205;-69
2022/12/10 12:08:06;;;;;;;22.33;16.20;;;13.30;51.30;;;;;;5053200;28;20969;-69
2022/12/10 12:10:31;;;;;;;20.42;15.98;;;13.30;51.20;;;;;;5052118;28;20621;-69
2022/12/10 12:13:18;;;;;;;19.92;15.63;;;13.30;51.20;;;;;;5053538;28;20189;-68
2022/12/10 12:15:47;;;;;;;19.25;15.77;;;13.30;51.30;;;;;;5053063;28;20309;-69
2022/12/10 12:18:23;;;;;;;21.30;16.02;;;13.30;51.10;;;;;;5051906;28;20317;-68
2022/12/10 12:20:54;;;;;;;24.30;16.85;;;13.30;51.20;;;;;;5051871;28;20257;-68
2022/12/10 12:23:43;;;;;;;21.13;16.27;;;13.20;51.20;;;;;;5052066;28;20649;-69
2022/12/10 12:26:34;;;;;;;20.00;16.23;;;13.20;51.30;;;;;;5052316;28;20182;-70
2022/12/10 12:29:25;;;;;;;21.35;16.50;;;13.20;51.40;;;;;;5047301;28;20191;-69
2022/12/10 12:31:57;;;;;;;18.85;14.75;;;13.20;51.50;;;;;;5051045;28;20187;-70
2022/12/10 12:34:49;;;;;;;19.50;14.88;;;13.20;51.40;;;;;;5052124;28;20297;-68
2022/12/10 12:37:16;;;;;;;19.08;15.25;;;13.30;51.50;;;;;;5053295;28;20187;-68
2022/12/10 12:39:54;;;;;;;18.55;15.02;;;13.30;51.40;;;;;;5052013;28;20186;-69
2022/12/10 12:42:41;;;;;;;17.00;14.60;;;13.30;51.40;;;;;;5052932;28;20640;-69
2022/12/10 12:45:18;;;;;;;18.27;15.10;;;13.30;51.30;;;;;;5051008;28;20317;-70